sensor_id;sensor_type;location;lat;lon;timestamp;P1;durP1;ratioP1;P2;durP2;ratioP2
67841;SDS011;54642;59.126;37.876;2022-12-29T00:02:15;11.68;;;6.65;;
67841;SDS011;54642;59.126;37.876;2022-12-29T00:04:42;13.57;;;6.93;;
67841;SDS011;54642;59.126;37.876;2022-12-29T00:07:08;11.27;;;6.20;;
67841;SDS011;54642;59.126;37.876;2022-12-29T00:09:35;13.57;;;6.30;;
67841;SDS011;54642;59.126;37.876;2022-12-29T00:12:01;8.73;;;5.15;;
67841;SDS011;54642;59.126;37.876;2022-12-29T00:14:28;9.65;;;5.50;;
67841;SDS011;54642;59.126;37.876;2022-12-29T00:17:13;10.27;;;5.65;;
67841;SDS011;54642;59.126;37.876;2022-12-29T00:22:24;12.07;;;5.30;;
67841;SDS011;54642;59.126;37.876;2022-12-29T00:25:09;12.52;;;6.47;;
67841;SDS011;54642;59.126;37.876;2022-12-29T00:27:55;16.92;;;7.10;;
67841;SDS011;54642;59.126;37.876;2022-12-29T00:30:39;11.07;;;5.70;;
67841;SDS011;54642;59.126;37.876;2022-12-29T00:33:31;9.85;;;5.28;;
67841;SDS011;54642;59.126;37.876;2022-12-29T00:36:21;11.25;;;5.50;;
67841;SDS011;54642;59.126;37.876;2022-12-29T00:39:07;12.68;;;4.78;;
67841;SDS011;54642;59.126;37.876;2022-12-29T00:41:56;10.68;;;5.45;;
67841;SDS011;54642;59.126;37.876;2022-12-29T00:44:40;11.98;;;5.50;;
67841;SDS011;54642;59.126;37.876;2022-12-29T00:47:08;13.68;;;6.30;;
67841;SDS011;54642;59.126;37.876;2022-12-29T00:49:34;9.80;;;5.00;;
67841;SDS011;54642;59.126;37.876;2022-12-29T00:52:02;13.57;;;6.45;;
67841;SDS011;54642;59.126;37.876;2022-12-29T00:54:36;12.88;;;5.93;;
67841;SDS011;54642;59.126;37.876;2022-12-29T00:57:05;9.30;;;5.65;;
67841;SDS011;54642;59.126;37.876;2022-12-29T00:59:32;15.30;;;7.30;;
67841;SDS011;54642;59.126;37.876;2022-12-29T01:02:00;11.73;;;4.85;;
67841;SDS011;54642;59.126;37.876;2022-12-29T01:04:27;14.90;;;6.13;;
67841;SDS011;54642;59.126;37.876;2022-12-29T01:06:53;8.60;;;4.30;;
67841;SDS011;54642;59.126;37.876;2022-12-29T01:09:19;9.70;;;4.68;;
67841;SDS011;54642;59.126;37.876;2022-12-29T01:12:04;11.43;;;5.65;;
67841;SDS011;54642;59.126;37.876;2022-12-29T01:14:32;13.55;;;5.63;;
67841;SDS011;54642;59.126;37.876;2022-12-29T01:16:58;11.63;;;5.60;;
67841;SDS011;54642;59.126;37.876;2022-12-29T01:19:24;11.43;;;5.90;;
67841;SDS011;54642;59.126;37.876;2022-12-29T01:21:50;11.73;;;5.75;;
67841;SDS011;54642;59.126;37.876;2022-12-29T01:24:18;11.07;;;7.35;;
67841;SDS011;54642;59.126;37.876;2022-12-29T01:26:45;16.40;;;7.72;;
67841;SDS011;54642;59.126;37.876;2022-12-29T01:29:11;16.40;;;7.72;;
67841;SDS011;54642;59.126;37.876;2022-12-29T01:31:38;16.98;;;7.78;;
67841;SDS011;54642;59.126;37.876;2022-12-29T01:34:04;16.73;;;8.20;;
67841;SDS011;54642;59.126;37.876;2022-12-29T01:36:31;16.05;;;7.57;;
67841;SDS011;54642;59.126;37.876;2022-12-29T01:38:58;19.77;;;8.93;;
67841;SDS011;54642;59.126;37.876;2022-12-29T01:41:24;22.10;;;9.30;;
67841;SDS011;54642;59.126;37.876;2022-12-29T01:49:19;16.52;;;7.80;;
67841;SDS011;54642;59.126;37.876;2022-12-29T01:51:53;16.25;;;8.07;;
67841;SDS011;54642;59.126;37.876;2022-12-29T01:54:27;17.73;;;7.32;;
67841;SDS011;54642;59.126;37.876;2022-12-29T01:56:58;18.00;;;8.10;;
67841;SDS011;54642;59.126;37.876;2022-12-29T01:59:29;20.70;;;6.78;;
67841;SDS011;54642;59.126;37.876;2022-12-29T02:01:58;15.30;;;7.28;;
67841;SDS011;54642;59.126;37.876;2022-12-29T02:04:25;14.43;;;7.07;;
67841;SDS011;54642;59.126;37.876;2022-12-29T02:07:05;15.45;;;6.93;;
67841;SDS011;54642;59.126;37.876;2022-12-29T02:09:39;14.60;;;6.60;;
67841;SDS011;54642;59.126;37.876;2022-12-29T02:12:06;12.02;;;6.32;;
67841;SDS011;54642;59.126;37.876;2022-12-29T02:14:33;10.82;;;5.63;;
67841;SDS011;54642;59.126;37.876;2022-12-29T02:34:12;17.33;;;7.95;;
67841;SDS011;54642;59.126;37.876;2022-12-29T02:39:59;13.30;;;6.20;;
67841;SDS011;54642;59.126;37.876;2022-12-29T02:42:46;11.90;;;6.22;;
67841;SDS011;54642;59.126;37.876;2022-12-29T02:45:35;15.23;;;6.43;;
67841;SDS011;54642;59.126;37.876;2022-12-29T02:48:09;11.32;;;5.25;;
67841;SDS011;54642;59.126;37.876;2022-12-29T02:50:50;11.95;;;6.78;;
67841;SDS011;54642;59.126;37.876;2022-12-29T02:53:24;12.63;;;7.20;;
67841;SDS011;54642;59.126;37.876;2022-12-29T02:56:11;12.85;;;8.32;;
67841;SDS011;54642;59.126;37.876;2022-12-29T02:58:37;13.75;;;7.05;;
67841;SDS011;54642;59.126;37.876;2022-12-29T03:11:53;12.45;;;6.22;;
67841;SDS011;54642;59.126;37.876;2022-12-29T03:14:39;12.68;;;6.80;;
67841;SDS011;54642;59.126;37.876;2022-12-29T03:17:32;12.13;;;5.68;;
67841;SDS011;54642;59.126;37.876;2022-12-29T03:20:10;13.02;;;6.35;;
67841;SDS011;54642;59.126;37.876;2022-12-29T03:22:43;13.93;;;6.57;;
67841;SDS011;54642;59.126;37.876;2022-12-29T03:27:58;13.93;;;6.10;;
67841;SDS011;54642;59.126;37.876;2022-12-29T03:33:04;13.80;;;6.75;;
67841;SDS011;54642;59.126;37.876;2022-12-29T03:35:35;13.93;;;9.20;;
67841;SDS011;54642;59.126;37.876;2022-12-29T03:38:29;13.05;;;6.00;;
67841;SDS011;54642;59.126;37.876;2022-12-29T03:41:18;12.95;;;5.80;;
67841;SDS011;54642;59.126;37.876;2022-12-29T03:43:50;14.32;;;6.45;;
67841;SDS011;54642;59.126;37.876;2022-12-29T03:48:42;15.70;;;5.93;;
67841;SDS011;54642;59.126;37.876;2022-12-29T03:53:35;15.40;;;5.97;;
67841;SDS011;54642;59.126;37.876;2022-12-29T03:56:01;9.77;;;5.43;;
67841;SDS011;54642;59.126;37.876;2022-12-29T03:58:28;14.32;;;5.78;;
67841;SDS011;54642;59.126;37.876;2022-12-29T04:01:08;13.25;;;6.03;;
67841;SDS011;54642;59.126;37.876;2022-12-29T04:03:36;12.65;;;6.07;;
67841;SDS011;54642;59.126;37.876;2022-12-29T04:06:03;16.38;;;7.13;;
67841;SDS011;54642;59.126;37.876;2022-12-29T04:08:37;14.45;;;6.40;;
67841;SDS011;54642;59.126;37.876;2022-12-29T04:11:04;15.55;;;6.93;;
67841;SDS011;54642;59.126;37.876;2022-12-29T04:13:30;13.02;;;5.70;;
67841;SDS011;54642;59.126;37.876;2022-12-29T04:15:56;13.38;;;7.18;;
67841;SDS011;54642;59.126;37.876;2022-12-29T04:18:22;11.48;;;5.90;;
67841;SDS011;54642;59.126;37.876;2022-12-29T04:20:48;14.40;;;6.15;;
67841;SDS011;54642;59.126;37.876;2022-12-29T04:23:27;13.90;;;8.85;;
67841;SDS011;54642;59.126;37.876;2022-12-29T04:25:55;15.45;;;6.95;;
67841;SDS011;54642;59.126;37.876;2022-12-29T04:28:21;12.52;;;6.40;;
67841;SDS011;54642;59.126;37.876;2022-12-29T04:30:53;9.32;;;4.88;;
67841;SDS011;54642;59.126;37.876;2022-12-29T04:33:22;12.00;;;5.65;;
67841;SDS011;54642;59.126;37.876;2022-12-29T04:38:14;14.73;;;8.30;;
67841;SDS011;54642;59.126;37.876;2022-12-29T04:40:41;15.32;;;6.45;;
67841;SDS011;54642;59.126;37.876;2022-12-29T04:43:09;12.98;;;6.05;;
67841;SDS011;54642;59.126;37.876;2022-12-29T04:45:53;13.77;;;8.88;;
67841;SDS011;54642;59.126;37.876;2022-12-29T04:48:27;13.60;;;6.60;;
67841;SDS011;54642;59.126;37.876;2022-12-29T04:51:16;19.27;;;10.07;;
67841;SDS011;54642;59.126;37.876;2022-12-29T04:53:42;14.32;;;6.72;;
67841;SDS011;54642;59.126;37.876;2022-12-29T04:56:08;14.63;;;8.63;;
67841;SDS011;54642;59.126;37.876;2022-12-29T04:58:35;14.80;;;9.32;;
67841;SDS011;54642;59.126;37.876;2022-12-29T05:01:01;15.82;;;7.03;;
67841;SDS011;54642;59.126;37.876;2022-12-29T05:03:29;17.20;;;8.98;;
67841;SDS011;54642;59.126;37.876;2022-12-29T05:05:55;11.32;;;6.05;;
67841;SDS011;54642;59.126;37.876;2022-12-29T05:08:22;13.45;;;6.03;;
67841;SDS011;54642;59.126;37.876;2022-12-29T05:10:49;12.73;;;7.80;;
67841;SDS011;54642;59.126;37.876;2022-12-29T05:13:16;12.45;;;6.72;;
67841;SDS011;54642;59.126;37.876;2022-12-29T05:15:49;14.07;;;6.35;;
67841;SDS011;54642;59.126;37.876;2022-12-29T05:18:17;17.50;;;8.40;;
67841;SDS011;54642;59.126;37.876;2022-12-29T05:23:09;16.88;;;7.95;;
67841;SDS011;54642;59.126;37.876;2022-12-29T05:25:35;17.75;;;9.10;;
67841;SDS011;54642;59.126;37.876;2022-12-29T05:28:12;19.67;;;9.35;;
67841;SDS011;54642;59.126;37.876;2022-12-29T05:30:48;18.95;;;8.50;;
67841;SDS011;54642;59.126;37.876;2022-12-29T05:33:17;18.17;;;9.13;;
67841;SDS011;54642;59.126;37.876;2022-12-29T05:35:44;19.65;;;10.27;;
67841;SDS011;54642;59.126;37.876;2022-12-29T05:38:11;19.50;;;10.73;;
67841;SDS011;54642;59.126;37.876;2022-12-29T05:40:37;19.05;;;9.32;;
67841;SDS011;54642;59.126;37.876;2022-12-29T05:43:11;16.05;;;8.07;;
67841;SDS011;54642;59.126;37.876;2022-12-29T05:45:56;13.40;;;7.60;;
67841;SDS011;54642;59.126;37.876;2022-12-29T05:48:31;17.33;;;8.07;;
67841;SDS011;54642;59.126;37.876;2022-12-29T05:51:16;15.35;;;7.78;;
67841;SDS011;54642;59.126;37.876;2022-12-29T05:53:47;16.17;;;6.82;;
67841;SDS011;54642;59.126;37.876;2022-12-29T05:56:14;10.70;;;5.78;;
67841;SDS011;54642;59.126;37.876;2022-12-29T05:58:41;12.70;;;6.32;;
67841;SDS011;54642;59.126;37.876;2022-12-29T06:01:07;18.50;;;8.40;;
67841;SDS011;54642;59.126;37.876;2022-12-29T06:03:33;14.48;;;10.23;;
67841;SDS011;54642;59.126;37.876;2022-12-29T06:05:59;33.13;;;17.08;;
67841;SDS011;54642;59.126;37.876;2022-12-29T06:08:26;23.50;;;12.77;;
67841;SDS011;54642;59.126;37.876;2022-12-29T06:10:52;14.38;;;7.82;;
67841;SDS011;54642;59.126;37.876;2022-12-29T06:13:18;25.38;;;10.77;;
67841;SDS011;54642;59.126;37.876;2022-12-29T06:15:50;25.90;;;12.73;;
67841;SDS011;54642;59.126;37.876;2022-12-29T06:18:17;13.73;;;8.77;;
67841;SDS011;54642;59.126;37.876;2022-12-29T06:20:43;12.45;;;5.35;;
67841;SDS011;54642;59.126;37.876;2022-12-29T06:23:09;9.52;;;5.38;;
67841;SDS011;54642;59.126;37.876;2022-12-29T06:25:37;12.32;;;5.60;;
67841;SDS011;54642;59.126;37.876;2022-12-29T06:28:03;8.90;;;4.50;;
67841;SDS011;54642;59.126;37.876;2022-12-29T06:30:30;10.18;;;5.03;;
67841;SDS011;54642;59.126;37.876;2022-12-29T06:32:58;9.48;;;5.30;;
67841;SDS011;54642;59.126;37.876;2022-12-29T06:35:24;8.85;;;4.65;;
67841;SDS011;54642;59.126;37.876;2022-12-29T06:37:51;12.73;;;5.78;;
67841;SDS011;54642;59.126;37.876;2022-12-29T06:40:18;11.27;;;6.40;;
67841;SDS011;54642;59.126;37.876;2022-12-29T06:43:04;14.27;;;6.38;;
67841;SDS011;54642;59.126;37.876;2022-12-29T06:45:56;11.07;;;5.18;;
67841;SDS011;54642;59.126;37.876;2022-12-29T06:48:22;12.48;;;5.03;;
67841;SDS011;54642;59.126;37.876;2022-12-29T06:50:48;12.48;;;5.53;;
67841;SDS011;54642;59.126;37.876;2022-12-29T06:53:14;12.30;;;7.80;;
67841;SDS011;54642;59.126;37.876;2022-12-29T06:58:07;12.73;;;5.45;;
67841;SDS011;54642;59.126;37.876;2022-12-29T07:00:32;11.35;;;5.30;;
67841;SDS011;54642;59.126;37.876;2022-12-29T07:02:58;11.95;;;5.38;;
67841;SDS011;54642;59.126;37.876;2022-12-29T07:05:25;14.70;;;7.93;;
67841;SDS011;54642;59.126;37.876;2022-12-29T07:07:53;12.30;;;8.70;;
67841;SDS011;54642;59.126;37.876;2022-12-29T07:10:22;12.32;;;6.32;;
67841;SDS011;54642;59.126;37.876;2022-12-29T07:15:14;10.85;;;5.93;;
67841;SDS011;54642;59.126;37.876;2022-12-29T07:17:40;10.52;;;4.95;;
67841;SDS011;54642;59.126;37.876;2022-12-29T07:20:06;10.77;;;4.90;;
67841;SDS011;54642;59.126;37.876;2022-12-29T07:22:32;12.40;;;6.30;;
67841;SDS011;54642;59.126;37.876;2022-12-29T07:24:58;14.35;;;6.55;;
67841;SDS011;54642;59.126;37.876;2022-12-29T07:27:24;11.40;;;6.80;;
67841;SDS011;54642;59.126;37.876;2022-12-29T07:29:50;12.75;;;6.45;;
67841;SDS011;54642;59.126;37.876;2022-12-29T07:32:16;11.35;;;5.90;;
67841;SDS011;54642;59.126;37.876;2022-12-29T07:34:42;11.52;;;4.80;;
67841;SDS011;54642;59.126;37.876;2022-12-29T07:37:10;11.68;;;6.15;;
67841;SDS011;54642;59.126;37.876;2022-12-29T07:39:36;9.82;;;4.72;;
67841;SDS011;54642;59.126;37.876;2022-12-29T07:42:02;7.72;;;5.15;;
67841;SDS011;54642;59.126;37.876;2022-12-29T07:44:36;14.45;;;6.22;;
67841;SDS011;54642;59.126;37.876;2022-12-29T07:47:22;14.95;;;5.97;;
67841;SDS011;54642;59.126;37.876;2022-12-29T07:49:48;21.10;;;7.32;;
67841;SDS011;54642;59.126;37.876;2022-12-29T07:52:13;14.70;;;6.32;;
67841;SDS011;54642;59.126;37.876;2022-12-29T07:54:39;13.60;;;7.18;;
67841;SDS011;54642;59.126;37.876;2022-12-29T07:57:05;12.80;;;5.70;;
67841;SDS011;54642;59.126;37.876;2022-12-29T07:59:31;18.38;;;8.60;;
67841;SDS011;54642;59.126;37.876;2022-12-29T08:01:57;16.73;;;6.80;;
67841;SDS011;54642;59.126;37.876;2022-12-29T08:04:23;13.13;;;6.25;;
67841;SDS011;54642;59.126;37.876;2022-12-29T08:06:49;16.10;;;6.47;;
67841;SDS011;54642;59.126;37.876;2022-12-29T08:09:15;15.68;;;7.05;;
67841;SDS011;54642;59.126;37.876;2022-12-29T08:11:40;11.20;;;6.72;;
67841;SDS011;54642;59.126;37.876;2022-12-29T08:14:08;15.43;;;7.00;;
67841;SDS011;54642;59.126;37.876;2022-12-29T08:19:00;9.40;;;6.43;;
67841;SDS011;54642;59.126;37.876;2022-12-29T08:21:27;12.70;;;6.82;;
67841;SDS011;54642;59.126;37.876;2022-12-29T08:23:54;10.95;;;6.32;;
67841;SDS011;54642;59.126;37.876;2022-12-29T08:26:19;9.90;;;4.90;;
67841;SDS011;54642;59.126;37.876;2022-12-29T08:28:46;11.20;;;5.82;;
67841;SDS011;54642;59.126;37.876;2022-12-29T08:31:11;10.13;;;5.57;;
67841;SDS011;54642;59.126;37.876;2022-12-29T08:33:37;8.38;;;5.20;;
67841;SDS011;54642;59.126;37.876;2022-12-29T08:36:05;11.43;;;5.72;;
67841;SDS011;54642;59.126;37.876;2022-12-29T08:38:32;13.32;;;6.50;;
67841;SDS011;54642;59.126;37.876;2022-12-29T08:40:58;13.88;;;6.50;;
67841;SDS011;54642;59.126;37.876;2022-12-29T08:43:26;15.20;;;9.98;;
67841;SDS011;54642;59.126;37.876;2022-12-29T08:45:52;12.70;;;5.85;;
67841;SDS011;54642;59.126;37.876;2022-12-29T08:48:18;12.27;;;5.50;;
67841;SDS011;54642;59.126;37.876;2022-12-29T08:50:47;16.67;;;8.25;;
67841;SDS011;54642;59.126;37.876;2022-12-29T08:53:15;14.48;;;6.30;;
67841;SDS011;54642;59.126;37.876;2022-12-29T08:55:41;14.00;;;6.68;;
67841;SDS011;54642;59.126;37.876;2022-12-29T08:58:07;9.57;;;5.57;;
67841;SDS011;54642;59.126;37.876;2022-12-29T09:00:36;17.90;;;6.80;;
67841;SDS011;54642;59.126;37.876;2022-12-29T09:03:02;12.40;;;5.45;;
67841;SDS011;54642;59.126;37.876;2022-12-29T09:05:28;11.10;;;6.20;;
67841;SDS011;54642;59.126;37.876;2022-12-29T09:07:54;11.77;;;5.65;;
67841;SDS011;54642;59.126;37.876;2022-12-29T09:10:20;11.02;;;6.15;;
67841;SDS011;54642;59.126;37.876;2022-12-29T09:12:46;12.38;;;5.78;;
67841;SDS011;54642;59.126;37.876;2022-12-29T09:15:12;11.25;;;6.38;;
67841;SDS011;54642;59.126;37.876;2022-12-29T09:17:38;11.35;;;6.05;;
67841;SDS011;54642;59.126;37.876;2022-12-29T09:20:11;12.18;;;7.18;;
67841;SDS011;54642;59.126;37.876;2022-12-29T09:22:41;12.60;;;6.32;;
67841;SDS011;54642;59.126;37.876;2022-12-29T09:25:07;11.57;;;6.18;;
67841;SDS011;54642;59.126;37.876;2022-12-29T09:27:34;10.10;;;5.80;;
67841;SDS011;54642;59.126;37.876;2022-12-29T09:30:02;11.05;;;5.72;;
67841;SDS011;54642;59.126;37.876;2022-12-29T09:32:29;12.38;;;5.30;;
67841;SDS011;54642;59.126;37.876;2022-12-29T09:34:55;23.13;;;8.60;;
67841;SDS011;54642;59.126;37.876;2022-12-29T09:37:21;21.52;;;8.60;;
67841;SDS011;54642;59.126;37.876;2022-12-29T09:39:47;15.88;;;8.65;;
67841;SDS011;54642;59.126;37.876;2022-12-29T09:47:29;15.60;;;8.77;;
67841;SDS011;54642;59.126;37.876;2022-12-29T09:53:29;14.95;;;7.90;;
67841;SDS011;54642;59.126;37.876;2022-12-29T09:55:50;13.52;;;6.43;;
67841;SDS011;54642;59.126;37.876;2022-12-29T10:03:29;10.38;;;5.45;;
67841;SDS011;54642;59.126;37.876;2022-12-29T10:06:09;14.82;;;5.07;;
67841;SDS011;54642;59.126;37.876;2022-12-29T10:19:31;9.88;;;5.00;;
67841;SDS011;54642;59.126;37.876;2022-12-29T10:25:20;10.95;;;4.90;;
67841;SDS011;54642;59.126;37.876;2022-12-29T10:27:50;12.95;;;5.40;;
67841;SDS011;54642;59.126;37.876;2022-12-29T10:30:19;10.77;;;5.55;;
67841;SDS011;54642;59.126;37.876;2022-12-29T10:32:47;11.25;;;3.95;;
67841;SDS011;54642;59.126;37.876;2022-12-29T10:35:34;8.77;;;4.28;;
67841;SDS011;54642;59.126;37.876;2022-12-29T10:41:21;9.85;;;6.45;;
67841;SDS011;54642;59.126;37.876;2022-12-29T10:44:01;10.82;;;4.93;;
67841;SDS011;54642;59.126;37.876;2022-12-29T10:46:29;9.60;;;6.25;;
67841;SDS011;54642;59.126;37.876;2022-12-29T10:51:32;7.05;;;4.32;;
67841;SDS011;54642;59.126;37.876;2022-12-29T10:56:39;9.82;;;4.85;;
67841;SDS011;54642;59.126;37.876;2022-12-29T10:59:21;12.52;;;4.93;;
67841;SDS011;54642;59.126;37.876;2022-12-29T11:07:34;6.95;;;3.80;;
67841;SDS011;54642;59.126;37.876;2022-12-29T11:10:16;8.73;;;5.10;;
67841;SDS011;54642;59.126;37.876;2022-12-29T11:13:10;11.75;;;4.95;;
67841;SDS011;54642;59.126;37.876;2022-12-29T11:15:40;7.60;;;4.95;;
67841;SDS011;54642;59.126;37.876;2022-12-29T11:18:20;10.32;;;4.95;;
67841;SDS011;54642;59.126;37.876;2022-12-29T11:20:47;10.50;;;4.72;;
67841;SDS011;54642;59.126;37.876;2022-12-29T11:28:38;8.45;;;4.47;;
67841;SDS011;54642;59.126;37.876;2022-12-29T11:31:06;12.38;;;5.10;;
67841;SDS011;54642;59.126;37.876;2022-12-29T11:33:35;7.80;;;4.85;;
67841;SDS011;54642;59.126;37.876;2022-12-29T11:36:04;7.95;;;4.60;;
67841;SDS011;54642;59.126;37.876;2022-12-29T11:41:28;8.00;;;4.07;;
67841;SDS011;54642;59.126;37.876;2022-12-29T11:44:00;12.00;;;5.10;;
67841;SDS011;54642;59.126;37.876;2022-12-29T11:46:34;7.28;;;4.10;;
67841;SDS011;54642;59.126;37.876;2022-12-29T11:49:02;15.52;;;5.35;;
67841;SDS011;54642;59.126;37.876;2022-12-29T11:51:30;8.27;;;4.55;;
67841;SDS011;54642;59.126;37.876;2022-12-29T11:54:14;10.45;;;5.50;;
67841;SDS011;54642;59.126;37.876;2022-12-29T11:56:49;13.45;;;5.95;;
67841;SDS011;54642;59.126;37.876;2022-12-29T12:04:47;11.88;;;5.53;;
67841;SDS011;54642;59.126;37.876;2022-12-29T12:07:17;10.73;;;7.78;;
67841;SDS011;54642;59.126;37.876;2022-12-29T12:09:58;7.22;;;4.30;;
67841;SDS011;54642;59.126;37.876;2022-12-29T12:12:35;10.35;;;5.13;;
67841;SDS011;54642;59.126;37.876;2022-12-29T12:15:12;11.30;;;5.38;;
67841;SDS011;54642;59.126;37.876;2022-12-29T12:17:54;15.55;;;5.90;;
67841;SDS011;54642;59.126;37.876;2022-12-29T12:28:30;6.70;;;4.30;;
67841;SDS011;54642;59.126;37.876;2022-12-29T12:31:04;10.57;;;5.30;;
67841;SDS011;54642;59.126;37.876;2022-12-29T12:33:40;11.02;;;6.38;;
67841;SDS011;54642;59.126;37.876;2022-12-29T12:55:35;8.38;;;4.20;;
67841;SDS011;54642;59.126;37.876;2022-12-29T12:59:06;7.38;;;4.85;;
67841;SDS011;54642;59.126;37.876;2022-12-29T13:07:03;10.77;;;5.38;;
67841;SDS011;54642;59.126;37.876;2022-12-29T13:23:16;12.52;;;7.28;;
67841;SDS011;54642;59.126;37.876;2022-12-29T13:25:56;10.77;;;6.28;;
67841;SDS011;54642;59.126;37.876;2022-12-29T13:34:12;13.02;;;7.13;;
67841;SDS011;54642;59.126;37.876;2022-12-29T13:36:43;16.52;;;6.35;;
67841;SDS011;54642;59.126;37.876;2022-12-29T13:39:18;13.80;;;6.47;;
67841;SDS011;54642;59.126;37.876;2022-12-29T13:41:55;15.35;;;5.63;;
67841;SDS011;54642;59.126;37.876;2022-12-29T13:44:23;11.52;;;5.78;;
67841;SDS011;54642;59.126;37.876;2022-12-29T13:46:53;10.85;;;5.38;;
67841;SDS011;54642;59.126;37.876;2022-12-29T13:49:22;11.15;;;6.72;;
67841;SDS011;54642;59.126;37.876;2022-12-29T13:51:58;15.13;;;6.95;;
67841;SDS011;54642;59.126;37.876;2022-12-29T14:05:36;8.77;;;5.68;;
67841;SDS011;54642;59.126;37.876;2022-12-29T14:08:05;10.15;;;5.63;;
67841;SDS011;54642;59.126;37.876;2022-12-29T14:10:48;8.57;;;4.18;;
67841;SDS011;54642;59.126;37.876;2022-12-29T14:13:18;7.50;;;4.10;;
67841;SDS011;54642;59.126;37.876;2022-12-29T14:15:51;10.07;;;3.28;;
67841;SDS011;54642;59.126;37.876;2022-12-29T14:18:20;8.15;;;4.47;;
67841;SDS011;54642;59.126;37.876;2022-12-29T14:20:53;6.47;;;3.72;;
67841;SDS011;54642;59.126;37.876;2022-12-29T14:23:34;8.95;;;4.00;;
67841;SDS011;54642;59.126;37.876;2022-12-29T14:28:36;16.05;;;9.32;;
67841;SDS011;54642;59.126;37.876;2022-12-29T14:31:04;13.35;;;6.07;;
67841;SDS011;54642;59.126;37.876;2022-12-29T14:33:39;14.18;;;9.10;;
67841;SDS011;54642;59.126;37.876;2022-12-29T14:38:45;5.93;;;4.20;;
67841;SDS011;54642;59.126;37.876;2022-12-29T14:41:33;9.85;;;4.32;;
67841;SDS011;54642;59.126;37.876;2022-12-29T14:44:01;5.90;;;3.20;;
67841;SDS011;54642;59.126;37.876;2022-12-29T14:46:44;6.47;;;3.25;;
67841;SDS011;54642;59.126;37.876;2022-12-29T14:49:18;10.43;;;4.38;;
67841;SDS011;54642;59.126;37.876;2022-12-29T14:51:47;6.70;;;4.20;;
67841;SDS011;54642;59.126;37.876;2022-12-29T14:59:47;8.60;;;4.63;;
67841;SDS011;54642;59.126;37.876;2022-12-29T15:02:22;8.38;;;3.90;;
67841;SDS011;54642;59.126;37.876;2022-12-29T15:04:51;6.15;;;3.40;;
67841;SDS011;54642;59.126;37.876;2022-12-29T15:07:23;4.53;;;3.50;;
67841;SDS011;54642;59.126;37.876;2022-12-29T15:09:53;9.15;;;4.03;;
67841;SDS011;54642;59.126;37.876;2022-12-29T15:14:59;7.78;;;6.47;;
67841;SDS011;54642;59.126;37.876;2022-12-29T15:17:26;14.18;;;6.40;;
67841;SDS011;54642;59.126;37.876;2022-12-29T15:19:54;10.77;;;5.30;;
67841;SDS011;54642;59.126;37.876;2022-12-29T15:22:21;9.25;;;3.97;;
67841;SDS011;54642;59.126;37.876;2022-12-29T15:24:49;6.97;;;4.15;;
67841;SDS011;54642;59.126;37.876;2022-12-29T15:27:23;5.30;;;3.60;;
67841;SDS011;54642;59.126;37.876;2022-12-29T15:29:59;7.82;;;5.00;;
67841;SDS011;54642;59.126;37.876;2022-12-29T15:32:38;9.82;;;4.57;;
67841;SDS011;54642;59.126;37.876;2022-12-29T15:37:51;7.82;;;4.82;;
67841;SDS011;54642;59.126;37.876;2022-12-29T15:40:30;17.10;;;8.38;;
67841;SDS011;54642;59.126;37.876;2022-12-29T15:43:00;15.45;;;8.65;;
67841;SDS011;54642;59.126;37.876;2022-12-29T15:45:36;19.15;;;8.27;;
67841;SDS011;54642;59.126;37.876;2022-12-29T15:48:03;27.40;;;10.13;;
67841;SDS011;54642;59.126;37.876;2022-12-29T15:50:31;17.05;;;8.43;;
67841;SDS011;54642;59.126;37.876;2022-12-29T15:52:59;13.60;;;10.25;;
67841;SDS011;54642;59.126;37.876;2022-12-29T15:55:28;11.00;;;7.65;;
67841;SDS011;54642;59.126;37.876;2022-12-29T15:57:56;22.00;;;7.18;;
67841;SDS011;54642;59.126;37.876;2022-12-29T16:00:31;12.02;;;7.43;;
67841;SDS011;54642;59.126;37.876;2022-12-29T16:03:02;9.02;;;5.80;;
67841;SDS011;54642;59.126;37.876;2022-12-29T16:05:34;8.75;;;4.22;;
67841;SDS011;54642;59.126;37.876;2022-12-29T16:08:01;9.90;;;4.57;;
67841;SDS011;54642;59.126;37.876;2022-12-29T16:10:32;8.15;;;4.88;;
67841;SDS011;54642;59.126;37.876;2022-12-29T16:13:03;6.65;;;4.63;;
67841;SDS011;54642;59.126;37.876;2022-12-29T16:15:31;8.63;;;6.03;;
67841;SDS011;54642;59.126;37.876;2022-12-29T16:17:57;8.23;;;4.15;;
67841;SDS011;54642;59.126;37.876;2022-12-29T16:22:52;7.65;;;3.72;;
67841;SDS011;54642;59.126;37.876;2022-12-29T16:25:25;7.47;;;4.03;;
67841;SDS011;54642;59.126;37.876;2022-12-29T16:27:56;11.10;;;6.05;;
67841;SDS011;54642;59.126;37.876;2022-12-29T16:30:26;9.73;;;4.82;;
67841;SDS011;54642;59.126;37.876;2022-12-29T16:32:55;8.30;;;5.25;;
67841;SDS011;54642;59.126;37.876;2022-12-29T16:38:13;12.85;;;8.52;;
67841;SDS011;54642;59.126;37.876;2022-12-29T16:48:52;11.65;;;6.25;;
67841;SDS011;54642;59.126;37.876;2022-12-29T16:51:28;11.48;;;5.15;;
67841;SDS011;54642;59.126;37.876;2022-12-29T16:53:58;10.85;;;5.10;;
67841;SDS011;54642;59.126;37.876;2022-12-29T16:56:26;8.50;;;4.40;;
67841;SDS011;54642;59.126;37.876;2022-12-29T17:01:55;10.95;;;6.05;;
67841;SDS011;54642;59.126;37.876;2022-12-29T17:04:22;13.50;;;5.72;;
67841;SDS011;54642;59.126;37.876;2022-12-29T17:06:48;9.93;;;5.18;;
67841;SDS011;54642;59.126;37.876;2022-12-29T17:09:18;13.27;;;5.75;;
67841;SDS011;54642;59.126;37.876;2022-12-29T17:11:50;26.55;;;11.13;;
67841;SDS011;54642;59.126;37.876;2022-12-29T17:14:27;10.32;;;5.63;;
67841;SDS011;54642;59.126;37.876;2022-12-29T17:17:20;7.45;;;4.90;;
67841;SDS011;54642;59.126;37.876;2022-12-29T17:22:48;10.00;;;4.15;;
67841;SDS011;54642;59.126;37.876;2022-12-29T17:25:18;8.52;;;4.30;;
67841;SDS011;54642;59.126;37.876;2022-12-29T17:27:47;7.55;;;3.65;;
67841;SDS011;54642;59.126;37.876;2022-12-29T17:30:17;5.00;;;3.30;;
67841;SDS011;54642;59.126;37.876;2022-12-29T17:32:48;7.95;;;5.95;;
67841;SDS011;54642;59.126;37.876;2022-12-29T17:35:20;11.93;;;5.07;;
67841;SDS011;54642;59.126;37.876;2022-12-29T17:37:47;11.23;;;4.82;;
67841;SDS011;54642;59.126;37.876;2022-12-29T17:40:15;6.78;;;3.88;;
67841;SDS011;54642;59.126;37.876;2022-12-29T17:42:53;9.02;;;5.13;;
67841;SDS011;54642;59.126;37.876;2022-12-29T17:45:25;4.80;;;3.05;;
67841;SDS011;54642;59.126;37.876;2022-12-29T17:47:55;3.47;;;2.20;;
67841;SDS011;54642;59.126;37.876;2022-12-29T17:50:24;6.45;;;3.38;;
67841;SDS011;54642;59.126;37.876;2022-12-29T17:52:55;6.70;;;3.83;;
67841;SDS011;54642;59.126;37.876;2022-12-29T17:55:26;7.30;;;3.95;;
67841;SDS011;54642;59.126;37.876;2022-12-29T17:57:53;5.90;;;2.97;;
67841;SDS011;54642;59.126;37.876;2022-12-29T18:00:20;7.82;;;4.75;;
67841;SDS011;54642;59.126;37.876;2022-12-29T18:02:48;6.75;;;3.72;;
67841;SDS011;54642;59.126;37.876;2022-12-29T18:05:22;7.70;;;3.78;;
67841;SDS011;54642;59.126;37.876;2022-12-29T18:07:51;8.25;;;5.45;;
67841;SDS011;54642;59.126;37.876;2022-12-29T18:10:18;7.55;;;4.90;;
67841;SDS011;54642;59.126;37.876;2022-12-29T18:12:47;6.47;;;3.65;;
67841;SDS011;54642;59.126;37.876;2022-12-29T18:15:20;4.50;;;3.20;;
67841;SDS011;54642;59.126;37.876;2022-12-29T18:17:48;10.55;;;6.97;;
67841;SDS011;54642;59.126;37.876;2022-12-29T18:20:15;9.40;;;4.28;;
67841;SDS011;54642;59.126;37.876;2022-12-29T18:27:58;8.48;;;3.65;;